• Join FlightAware (Why Join?)
  • Login
  • US Flag 
11:57PM EST


 

Airport Tracker/Info


-or-


 

Live Flight TrackerFlight Track Log ✈ DAL2352 ✈ 21-Aug-2013 ✈ KALB - KATL

Flight Track Log - Related Links

Times and Time Zones

All times are in EDT time to prevent confusion due to time zone crossing. See the DAL2352 flight status page for this flight to view local times or setup timezone preferences in your user account.

Time Position Orientation Groundspeed Altitude Reporting Facility
EDT Latitude Longitude Course Direction KTS MPH feet Rate Location/Type
06:27AM 42.7672 -73.8061 200° South 163 188 1,100  Level Boston Center
06:28AM 42.8272 -73.8442 335° Northwest 219 252 3,100 2,220 Climbing Boston Center
06:30AM 42.5128 -74.1323 200° South  Level Estimated
06:30AM 42.8931 -73.9250 318° Northwest 271 312 6,800  Level Boston Center
06:31AM 42.4338 -74.2419 198° South  Level Estimated
06:31AM 42.9144 -74.0306 285° West 255 293 9,900  Level Boston Center
06:32AM 42.3548 -74.3511 200° South  Level Estimated
06:32AM 42.8986 -74.1236 257° West 281 323 12,100  Level Boston Center
06:33AM 42.8086 -74.1381 187° South 252 290 14,300 1,980 Climbing Boston Center
06:34AM 42.7256 -74.1275 175° South 302 348 16,100 1,740 Climbing Boston Center
06:35AM 42.6133 -74.1047 172° South 354 407 17,900 1,560 Climbing Boston Center
06:36AM 42.5072 -74.0878 173° South 380 437 19,300 1,560 Climbing Boston Center
06:37AM 42.3928 -74.0678 173° South 401 461 21,100 1,860 Climbing Boston Center
06:38AM 42.2764 -74.0478 173° South 415 478 23,100 1,680 Climbing Boston Center
06:39AM 42.1597 -74.0450 179° South 421 484 24,600 1,140 Climbing Boston Center
06:40AM 42.0347 -74.0500 182° South 430 495 25,400 1,140 Climbing Boston Center
06:41AM 41.9117 -74.0581 183° South 444 511 26,900 1,500 Climbing Boston Center
06:42AM 41.6842 -74.0681 182° South 451 519 29,800 1,380 Climbing New York Center
06:43AM 41.5653 -74.0733 182° South 451 519 31,000 1,080 Climbing New York Center
06:44AM 41.4472 -74.1256 198° South 438 504 32,000 900 Climbing New York Center
06:45AM 41.3586 -74.2372 223° Southwest 424 488 32,900 900 Climbing New York Center
06:46AM 41.2658 -74.3428 221° Southwest 438 504 33,900 540 Climbing New York Center
06:47AM 41.1772 -74.4511 223° Southwest 438 504 34,000  Climbing New York Center
06:48AM 41.0864 -74.5589 222° Southwest 438 504 34,000  Level New York Center
06:49AM 40.9972 -74.6667 222° Southwest 438 504 34,000  Level New York Center
06:50AM 40.9083 -74.7714 222° Southwest 433 498 34,000  Level New York Center
06:51AM 40.8194 -74.8758 222° Southwest 433 498 34,000  Level New York Center
06:52AM 40.7264 -74.9769 219° Southwest 433 498 34,000  Level New York Center
06:53AM 40.6414 -75.0814 223° Southwest 433 498 34,000  Level New York Center
06:54AM 40.5519 -75.1850 221° Southwest 433 498 34,000  Level New York Center
06:55AM 40.4628 -75.2856 221° Southwest 433 498 34,000  Level New York Center
06:56AM 40.3731 -75.3914 222° Southwest 433 498 34,000  Level New York Center
06:57AM 40.2839 -75.4917 221° Southwest 433 498 34,000  Level New York Center
06:58AM 40.2022 -75.6003 225° Southwest 433 498 34,000  Level New York Center
06:59AM 40.1428 -75.7264 238° Southwest 427 491 34,000  Level New York Center
07:00AM 40.0769 -75.8519 236° Southwest 427 491 34,000  Level New York Center
07:01AM 40.0131 -75.9775 236° Southwest 422 486 34,000  Level New York Center
07:02AM 39.9514 -76.1000 237° Southwest 422 486 34,000  Level New York Center
07:03AM 39.8894 -76.2253 237° Southwest 422 486 34,000  Level New York Center
07:04AM 39.8231 -76.3500 235° Southwest 422 486 34,000  Level New York Center
07:05AM 39.7589 -76.4717 236° Southwest 422 486 34,000  Level New York Center
07:07AM 39.6883 -76.6161 238° Southwest 421 484 34,000  Level Washington Center
07:08AM 39.6208 -76.7364 234° Southwest 409 471 34,000  Level Washington Center
07:09AM 39.5569 -76.8592 236° Southwest 409 471 34,000  Level Washington Center
07:10AM 39.4911 -76.9764 234° Southwest 415 478 34,000  Level Washington Center
07:11AM 39.4214 -77.0556 221° Southwest 415 478 34,000  Level Washington Center
07:12AM 39.3328 -77.1478 219° Southwest 415 478 34,000  Level Washington Center
07:13AM 39.2375 -77.2475 219° Southwest 415 478 34,000  Level Washington Center
07:14AM 39.1467 -77.3392 218° Southwest 415 478 34,000  Level Washington Center
07:15AM 39.0578 -77.4306 219° Southwest 415 478 34,000  Level Washington Center
07:16AM 38.9583 -77.5322 218° Southwest 415 478 34,000  Level Washington Center
07:17AM 38.8775 -77.6156 219° Southwest 423 487 34,000  Level Washington Center
07:18AM 38.7822 -77.7114 218° Southwest 433 498 34,000  Level Washington Center
07:19AM 38.6886 -77.8153 221° Southwest 425 489 34,000  Level Washington Center
07:20AM 38.6094 -77.9164 225° Southwest 415 478 34,000  Level Washington Center
07:21AM 38.5406 -78.0336 233° Southwest 409 471 34,000  Level Washington Center
07:22AM 38.4733 -78.1508 234° Southwest 415 478 34,000  Level Washington Center
07:23AM 38.4061 -78.2678 234° Southwest 415 478 34,000  Level Washington Center
07:24AM 38.3389 -78.3819 233° Southwest 415 478 34,000  Level Washington Center
07:25AM 38.2717 -78.4931 232° Southwest 410 472 34,000  Level Washington Center
07:26AM 38.2128 -78.5964 234° Southwest 405 466 34,000  Level Washington Center
07:27AM 38.1453 -78.7100 233° Southwest 405 466 34,000  Level Washington Center
07:28AM 38.0711 -78.8333 233° Southwest 405 466 34,000  Level Washington Center
07:29AM 38.0011 -78.9489 232° Southwest 405 466 34,000  Level Washington Center
07:30AM 37.9311 -79.0617 232° Southwest 405 466 34,000  Level Washington Center
07:31AM 37.8592 -79.1717 230° Southwest 405 466 34,000  Level Washington Center
07:32AM 37.7894 -79.2656 227° Southwest 411 473 34,000  Level Washington Center
07:33AM 37.7047 -79.3822 227° Southwest 416 479 34,000  Level Washington Center
07:34AM 37.6261 -79.4883 227° Southwest 416 479 34,000  Level Washington Center
07:35AM 37.5497 -79.5944 228° Southwest 416 479 34,000  Level Washington Center
07:36AM 37.4731 -79.7003 228° Southwest 416 479 34,000  Level Washington Center
07:37AM 37.4006 -79.8011 228° Southwest 419 482 34,000  Level Washington Center
07:38AM 37.3239 -79.9039 227° Southwest 419 482 34,000  Level Washington Center
07:39AM 37.2406 -80.0192 228° Southwest 419 482 34,000  Level Washington Center
07:40AM 37.1217 -80.1786 227° Southwest 417 480 34,000  Level Atlanta Center
07:41AM 37.0456 -80.2811 227° Southwest 411 473 34,000  Level Atlanta Center
07:42AM 36.9694 -80.3836 227° Southwest 406 467 34,000  Level Atlanta Center
07:43AM 36.8911 -80.4883 227° Southwest 406 467 34,000  Level Atlanta Center
07:44AM 36.8208 -80.5822 227° Southwest 406 467 34,000  Level Atlanta Center
07:45AM 36.7403 -80.6894 227° Southwest 399 459 34,000  Level Atlanta Center
07:46AM 36.6597 -80.7911 225° Southwest 404 465 34,000  Level Atlanta Center
07:47AM 36.5811 -80.8978 227° Southwest 409 471 34,000  Level Atlanta Center
07:48AM 36.5125 -80.9908 227° Southwest 409 471 34,000  Level Atlanta Center
07:49AM 36.4339 -81.0919 226° Southwest 409 471 34,000  Level Atlanta Center
07:50AM 36.3592 -81.1950 228° Southwest 409 471 34,000  Level Atlanta Center
07:51AM 36.2800 -81.2983 226° Southwest 409 471 34,000  Level Atlanta Center
07:52AM 36.1989 -81.3989 225° Southwest 409 471 34,000  Level Atlanta Center
07:53AM 36.1239 -81.5017 228° Southwest 408 470 34,000  Level Atlanta Center
07:54AM 36.0467 -81.6042 227° Southwest 408 470 34,000  Level Atlanta Center
07:55AM 35.9672 -81.7042 226° Southwest 408 470 34,000  Level Atlanta Center
07:56AM 35.8900 -81.8061 227° Southwest 408 470 34,000  Level Atlanta Center
07:57AM 35.8083 -81.9083 225° Southwest 408 470 34,000  Level Atlanta Center
07:58AM 35.7286 -82.0128 227° Southwest 408 470 34,000  Level Atlanta Center
07:59AM 35.6386 -82.1247 225° Southwest 408 470 34,000  Level Atlanta Center
08:00AM 35.5589 -82.2314 227° Southwest 414 476 34,000 -360 Level Atlanta Center
08:01AM 35.4769 -82.3325 225° Southwest 414 476 33,300 -780 Descending Atlanta Center
08:02AM 35.3906 -82.4286 222° Southwest 419 482 32,500 -840 Descending Atlanta Center
08:03AM 35.3042 -82.5269 223° Southwest 424 488 31,700 -780 Descending Atlanta Center
08:04AM 35.2258 -82.6072 220° Southwest 429 494 31,000 -780 Descending Atlanta Center
08:05AM 35.1353 -82.7106 223° Southwest 429 494 30,200 -840 Descending Atlanta Center
08:06AM 35.0464 -82.8058 221° Southwest 435 501 29,400 -840 Descending Atlanta Center
08:07AM 34.9556 -82.9058 222° Southwest 441 507 28,600 -840 Descending Atlanta Center
08:08AM 34.8606 -83.0033 220° Southwest 441 507 27,800 -840 Descending Atlanta Center
08:09AM 34.7736 -83.1056 224° Southwest 441 507 27,000 -840 Descending Atlanta Center
08:10AM 34.6783 -83.2053 221° Southwest 446 513 26,200 -840 Descending Atlanta Center
08:11AM 34.5808 -83.3047 220° Southwest 456 525 25,400 -900 Descending Atlanta Center
08:12AM 34.4814 -83.4164 223° Southwest 456 525 24,400 -1,680 Descending Atlanta Center
08:13AM 34.3922 -83.5153 222° Southwest 461 531 22,100 -2,700 Descending Atlanta Center
08:14AM 34.3047 -83.6114 222° Southwest 442 509 19,000 -3,120 Descending Atlanta Center
08:15AM 34.2194 -83.7022 221° Southwest 422 486 15,900 -2,520 Descending Atlanta Center
08:16AM 34.1364 -83.7903 221° Southwest 407 468 14,000 -960 Descending Atlanta Center
08:17AM 34.0675 -83.8658 222° Southwest 369 425 14,000 -120 Level Atlanta Center
08:18AM 34.0333 -83.9000 220° Southwest 307 353 13,900 -600 Descending Atlanta TRACON
08:19AM 33.9833 -83.9833 234° Southwest 314 361 13,100 -840 Descending Atlanta TRACON
08:20AM 33.9167 -84.0667 226° Southwest 319 367 12,300 -600 Descending Atlanta TRACON
08:21AM 33.8667 -84.1333 228° Southwest 313 360 12,000 -180 Descending Atlanta TRACON
08:22AM 33.8167 -84.2167 234° Southwest 294 338 12,000  Level Atlanta TRACON
08:23AM 33.7667 -84.3000 234° Southwest 295 339 12,000 -540 Level Atlanta TRACON
08:24AM 33.7333 -84.3833 244° Southwest 305 351 11,000 -960 Descending Atlanta TRACON
08:25AM 33.7167 -84.4833 259° West 287 330 10,100 -1,020 Descending Atlanta TRACON
08:26AM 33.7333 -84.5667 284° West 257 296 9,000 -1,260 Descending Atlanta TRACON
08:27AM 33.7333 -84.6667 270° West 254 292 7,500 -1,380 Descending Atlanta TRACON
08:28AM 33.7333 -84.7500 270° West 250 288 6,200 -1,080 Descending Atlanta TRACON
08:29AM 33.7333 -84.8333 270° West 240 276 5,400 -600 Descending Atlanta TRACON
08:30AM 33.6833 -84.8667 209° Southwest 220 253 5,100 -180 Descending Atlanta TRACON
08:31AM 33.6500 -84.8167 129° Southeast 234 269 5,100 -60 Level Atlanta TRACON
08:32AM 33.6500 -84.7333 90° East 236 272 5,000 -300 Descending Atlanta TRACON
08:33AM 33.6500 -84.6500 90° East 234 269 4,500 -840 Descending Atlanta TRACON
08:34AM 33.6500 -84.5833 90° East 235 270 3,400 -1,080 Descending Atlanta TRACON
08:35AM 33.6500 -84.5167 90° East 176 203 2,500 -960 Descending Atlanta TRACON
08:36AM 33.6500 -84.4667 90° East 145 167 1,500 -1,020 Descending Atlanta TRACON